Time;durP1;ratioP1;P1;durP2;ratioP2;P2;SDS_P1;SDS_P2;PMS_P1;PMS_P2;Temp;Humidity;BMP_temperature;BMP_pressure;BME280_temperature;BME280_humidity;BME280_pressure;Samples;Min_cycle;Max_cycle;Signal;HPM_P1;HPM_P2
2023/07/28 10:39:14;;;;;;;4.97;2.95;;;;;;;;;;1485574;26;20041;-86
2023/07/28 10:42:00;;;;;;;3.30;3.00;;;;;;;;;;4966436;28;20049;-86
2023/07/28 10:44:27;;;;;;;3.10;2.85;;;;;;;;;;4992917;28;20073;-86
2023/07/28 10:46:53;;;;;;;3.35;2.78;;;;;;;;;;5003178;28;20046;-86
2023/07/28 10:49:20;;;;;;;3.10;2.80;;;;;;;;;;4983900;28;20048;-84
2023/07/28 10:51:46;;;;;;;3.35;2.67;;;;;;;;;;5003921;28;20084;-86
2023/07/28 10:54:19;;;;;;;2.80;2.60;;;;;;;;;;4988752;28;20038;-86
2023/07/28 10:56:45;;;;;;;6.63;3.70;;;;;;;;;;4998821;28;20116;-86
2023/07/28 10:59:11;;;;;;;4.40;3.65;;;;;;;;;;4996448;28;20042;-83
2023/07/28 11:01:39;;;;;;;5.47;3.97;;;;;;;;;;5000859;28;20136;-83
2023/07/28 11:04:13;;;;;;;3.65;3.15;;;;;;;;;;4999968;28;20092;-84
2023/07/28 11:06:42;;;;;;;5.15;4.03;;;;;;;;;;4980322;28;20035;-84
2023/07/28 11:09:09;;;;;;;5.72;3.85;;;;;;;;;;4998411;28;20085;-84
2023/07/28 11:11:36;;;;;;;5.10;4.13;;;;;;;;;;4997944;28;20093;-84
2023/07/28 11:14:03;;;;;;;5.00;3.78;;;;;;;;;;4985420;28;20372;-84
2023/07/28 11:16:29;;;;;;;6.75;4.07;;;;;;;;;;5019357;28;20045;-83
2023/07/28 11:18:57;;;;;;;4.78;4.30;;;;;;;;;;5028053;28;20042;-84
2023/07/28 11:21:23;;;;;;;6.85;5.18;;;;;;;;;;5017951;28;20058;-81
2023/07/28 11:23:50;;;;;;;5.10;4.57;;;;;;;;;;5001360;28;20695;-85
2023/07/28 11:26:17;;;;;;;5.97;5.35;;;;;;;;;;5005383;28;20034;-84
2023/07/28 11:28:44;;;;;;;6.78;4.82;;;;;;;;;;4996589;28;20048;-82
2023/07/28 11:31:10;;;;;;;6.38;4.45;;;;;;;;;;4992179;28;20308;-83
2023/07/28 11:33:36;;;;;;;5.72;4.93;;;;;;;;;;4999798;28;20495;-82
2023/07/28 11:36:02;;;;;;;4.57;4.18;;;;;;;;;;4985018;28;20077;-82
2023/07/28 11:38:29;;;;;;;5.95;4.60;;;;;;;;;;4986784;28;20083;-84
2023/07/28 11:40:55;;;;;;;6.03;4.72;;;;;;;;;;5004890;28;20049;-81
2023/07/28 11:43:23;;;;;;;6.88;6.05;;;;;;;;;;4994678;28;20050;-82
2023/07/28 11:45:49;;;;;;;7.47;5.25;;;;;;;;;;5011637;28;20077;-81
2023/07/28 11:48:15;;;;;;;6.07;4.82;;;;;;;;;;5012228;28;20065;-83
2023/07/28 11:50:42;;;;;;;7.50;5.28;;;;;;;;;;5009606;28;20050;-80
2023/07/28 11:53:09;;;;;;;6.05;5.45;;;;;;;;;;5005655;28;20411;-81
2023/07/28 11:55:36;;;;;;;6.13;4.90;;;;;;;;;;5011480;28;20092;-83
2023/07/28 11:58:04;;;;;;;5.40;4.90;;;;;;;;;;4989217;28;20041;-82
2023/07/28 12:00:35;;;;;;;4.82;4.30;;;;;;;;;;5007848;28;20403;-82
2023/07/28 12:03:03;;;;;;;6.93;5.55;;;;;;;;;;5011169;28;20045;-82
2023/07/28 12:05:29;;;;;;;4.80;4.30;;;;;;;;;;4991487;28;20057;-81
2023/07/28 12:07:55;;;;;;;9.07;7.25;;;;;;;;;;5010810;28;20037;-82
2023/07/28 12:10:21;;;;;;;9.05;5.82;;;;;;;;;;5003965;28;20101;-81
2023/07/28 12:12:48;;;;;;;7.65;5.00;;;;;;;;;;4989523;28;20049;-83
2023/07/28 12:15:21;;;;;;;5.22;4.72;;;;;;;;;;4994474;28;20073;-83
2023/07/28 12:18:06;;;;;;;6.45;5.25;;;;;;;;;;5001061;28;20044;-83
2023/07/28 12:20:39;;;;;;;6.18;4.90;;;;;;;;;;5011163;28;20073;-83
2023/07/28 12:23:05;;;;;;;4.88;4.13;;;;;;;;;;5007167;28;20095;-82
2023/07/28 12:25:32;;;;;;;5.53;4.43;;;;;;;;;;4999951;28;20034;-83
2023/07/28 12:27:58;;;;;;;5.10;4.40;;;;;;;;;;5011547;28;20045;-83
2023/07/28 12:30:24;;;;;;;5.25;4.50;;;;;;;;;;5010436;28;20534;-83
2023/07/28 12:32:50;;;;;;;6.22;4.25;;;;;;;;;;5007378;28;20117;-82
2023/07/28 12:35:16;;;;;;;5.90;4.15;;;;;;;;;;4993394;28;20163;-81
2023/07/28 12:37:42;;;;;;;4.80;3.97;;;;;;;;;;5010561;28;20038;-83
2023/07/28 12:40:10;;;;;;;7.93;4.85;;;;;;;;;;5003438;28;20153;-83
2023/07/28 12:42:36;;;;;;;4.93;3.95;;;;;;;;;;5005094;28;20041;-84
2023/07/28 12:45:02;;;;;;;4.53;3.85;;;;;;;;;;4993211;28;20038;-84
2023/07/28 12:47:28;;;;;;;6.63;4.63;;;;;;;;;;5009222;28;20045;-82
2023/07/28 12:49:55;;;;;;;5.15;3.97;;;;;;;;;;5006375;28;20042;-82
2023/07/28 12:52:21;;;;;;;4.13;3.58;;;;;;;;;;4990985;28;20041;-82
2023/07/28 12:54:47;;;;;;;4.68;4.25;;;;;;;;;;5010690;28;20042;-81
2023/07/28 12:57:13;;;;;;;5.07;4.53;;;;;;;;;;5006305;28;20130;-83
2023/07/28 12:59:39;;;;;;;4.30;3.55;;;;;;;;;;4991534;28;20069;-83
2023/07/28 13:02:06;;;;;;;5.50;3.95;;;;;;;;;;4992196;28;20445;-82
2023/07/28 13:04:32;;;;;;;4.28;3.83;;;;;;;;;;4990963;28;20042;-82
2023/07/28 13:06:58;;;;;;;4.55;3.80;;;;;;;;;;5002004;28;20108;-82
2023/07/28 13:09:24;;;;;;;5.60;3.88;;;;;;;;;;5009855;28;20034;-83
2023/07/28 13:11:50;;;;;;;4.30;3.78;;;;;;;;;;5005050;28;20042;-82
2023/07/28 13:14:16;;;;;;;4.72;4.32;;;;;;;;;;5007489;28;20422;-83
2023/07/28 13:16:44;;;;;;;5.55;4.20;;;;;;;;;;5007150;28;20042;-83
2023/07/28 13:19:10;;;;;;;8.20;4.93;;;;;;;;;;5017843;28;20042;-84
2023/07/28 13:21:36;;;;;;;5.53;4.32;;;;;;;;;;5007225;28;20092;-81
2023/07/28 13:24:03;;;;;;;5.30;4.63;;;;;;;;;;5011375;28;20041;-83
2023/07/28 13:26:29;;;;;;;4.88;4.07;;;;;;;;;;4991777;28;20045;-83
2023/07/28 13:28:56;;;;;;;5.68;4.47;;;;;;;;;;4993185;28;20487;-84
2023/07/28 13:31:22;;;;;;;6.20;4.70;;;;;;;;;;4988462;28;20056;-82
2023/07/28 13:33:48;;;;;;;6.53;4.63;;;;;;;;;;5000848;28;20050;-83
2023/07/28 13:36:14;;;;;;;4.88;4.45;;;;;;;;;;4978814;28;20046;-81
2023/07/28 13:38:41;;;;;;;7.43;5.13;;;;;;;;;;5007822;28;20060;-83
2023/07/28 13:41:07;;;;;;;7.07;4.70;;;;;;;;;;5005431;28;20057;-83
2023/07/28 13:43:37;;;;;;;4.78;4.30;;;;;;;;;;5007913;28;20037;-84
2023/07/28 13:46:07;;;;;;;5.43;4.78;;;;;;;;;;5009978;28;20033;-84
2023/07/28 13:48:33;;;;;;;5.13;4.60;;;;;;;;;;4990935;28;20399;-84
2023/07/28 13:50:59;;;;;;;6.25;4.97;;;;;;;;;;5002855;28;20046;-86
2023/07/28 13:53:26;;;;;;;5.43;4.97;;;;;;;;;;5002270;28;20108;-83
2023/07/28 13:55:52;;;;;;;5.32;4.10;;;;;;;;;;4993369;28;20030;-82
2023/07/28 13:58:18;;;;;;;4.30;3.88;;;;;;;;;;5006874;28;20042;-84
2023/07/28 14:00:44;;;;;;;4.40;4.00;;;;;;;;;;5008843;28;20038;-83
2023/07/28 14:03:10;;;;;;;5.00;3.67;;;;;;;;;;4989314;28;20042;-84
2023/07/28 14:05:36;;;;;;;4.35;3.70;;;;;;;;;;5008880;28;20042;-83
2023/07/28 14:08:02;;;;;;;3.88;3.55;;;;;;;;;;5006533;28;20379;-82
2023/07/28 14:10:28;;;;;;;5.80;3.85;;;;;;;;;;5009115;28;20076;-81
2023/07/28 14:12:54;;;;;;;4.70;3.72;;;;;;;;;;5008934;28;20038;-84
2023/07/28 14:15:20;;;;;;;7.78;3.88;;;;;;;;;;4990658;28;20387;-82
2023/07/28 14:17:46;;;;;;;3.50;3.20;;;;;;;;;;5009215;28;20046;-83
2023/07/28 14:20:13;;;;;;;4.03;3.63;;;;;;;;;;5010397;28;20038;-83
2023/07/28 14:22:39;;;;;;;4.13;3.72;;;;;;;;;;5005127;28;20124;-83
2023/07/28 14:25:05;;;;;;;4.30;3.80;;;;;;;;;;5009632;28;20130;-82
2023/07/28 14:27:31;;;;;;;4.20;3.80;;;;;;;;;;5007995;28;20038;-82
2023/07/28 14:29:57;;;;;;;5.82;4.50;;;;;;;;;;4989403;28;20052;-82
2023/07/28 14:32:23;;;;;;;4.57;4.18;;;;;;;;;;5004249;28;20113;-80
2023/07/28 14:34:49;;;;;;;4.70;4.03;;;;;;;;;;5002580;28;20045;-82
2023/07/28 14:37:15;;;;;;;6.07;4.13;;;;;;;;;;5006220;28;20046;-81
2023/07/28 14:39:41;;;;;;;4.70;4.30;;;;;;;;;;4999573;28;20557;-83
2023/07/28 14:42:07;;;;;;;4.50;4.10;;;;;;;;;;5008550;28;20107;-84
2023/07/28 14:44:33;;;;;;;4.65;4.00;;;;;;;;;;4985325;28;20038;-85
2023/07/28 14:46:59;;;;;;;5.30;4.57;;;;;;;;;;5005317;28;20533;-83
2023/07/28 14:49:28;;;;;;;6.65;4.97;;;;;;;;;;5007617;28;20050;-84
2023/07/28 14:51:56;;;;;;;4.45;4.05;;;;;;;;;;5007084;28;20044;-85
2023/07/28 14:54:22;;;;;;;4.60;4.13;;;;;;;;;;5007311;28;20187;-82
2023/07/28 14:56:48;;;;;;;4.15;3.83;;;;;;;;;;4991043;28;20367;-84
2023/07/28 14:59:15;;;;;;;5.10;4.60;;;;;;;;;;5007725;28;20073;-85
2023/07/28 15:01:41;;;;;;;4.80;4.40;;;;;;;;;;4984587;28;20054;-85
2023/07/28 15:04:07;;;;;;;3.97;3.55;;;;;;;;;;5008175;28;20048;-81
2023/07/28 15:06:33;;;;;;;4.97;4.18;;;;;;;;;;5010026;28;20390;-81
2023/07/28 15:08:59;;;;;;;5.55;4.72;;;;;;;;;;5007125;28;20041;-80
2023/07/28 15:11:25;;;;;;;5.10;4.10;;;;;;;;;;4997822;28;20064;-79
2023/07/28 15:13:51;;;;;;;4.82;4.25;;;;;;;;;;5009858;28;20438;-79
2023/07/28 15:16:17;;;;;;;4.95;4.45;;;;;;;;;;4993073;28;20073;-79
2023/07/28 15:18:43;;;;;;;4.45;4.05;;;;;;;;;;5011600;28;20064;-80
2023/07/28 15:21:09;;;;;;;5.00;4.50;;;;;;;;;;5012425;28;20065;-80
2023/07/28 15:23:35;;;;;;;5.30;4.28;;;;;;;;;;4995364;28;20310;-80
2023/07/28 15:26:02;;;;;;;4.82;4.20;;;;;;;;;;4996007;28;20046;-80
2023/07/28 15:28:28;;;;;;;6.05;4.57;;;;;;;;;;4993421;28;20037;-81
2023/07/28 15:30:55;;;;;;;6.35;3.95;;;;;;;;;;4993910;28;20092;-80
2023/07/28 15:33:28;;;;;;;4.63;4.15;;;;;;;;;;5008923;28;20107;-80
2023/07/28 15:35:54;;;;;;;4.00;3.50;;;;;;;;;;5009709;28;20467;-80
2023/07/28 15:38:20;;;;;;;4.80;4.15;;;;;;;;;;5009335;28;20041;-79
2023/07/28 15:40:47;;;;;;;4.75;4.28;;;;;;;;;;4984409;28;20049;-80
2023/07/28 15:43:13;;;;;;;7.15;4.00;;;;;;;;;;5001335;28;20455;-80
2023/07/28 15:45:39;;;;;;;4.65;4.00;;;;;;;;;;4979237;28;20099;-83
2023/07/28 15:48:05;;;;;;;4.63;4.10;;;;;;;;;;5006957;28;20049;-82
2023/07/28 15:50:31;;;;;;;4.00;3.70;;;;;;;;;;5008397;28;20041;-83
2023/07/28 15:52:57;;;;;;;4.53;3.90;;;;;;;;;;5010074;28;20053;-82
2023/07/28 15:55:23;;;;;;;4.57;4.18;;;;;;;;;;5010655;28;20172;-80
2023/07/28 15:57:49;;;;;;;4.28;3.88;;;;;;;;;;4991151;28;20050;-80
2023/07/28 16:00:15;;;;;;;5.70;4.38;;;;;;;;;;5006064;28;20041;-81
2023/07/28 16:02:41;;;;;;;4.18;3.78;;;;;;;;;;5008114;28;20483;-81
2023/07/28 16:05:08;;;;;;;4.88;4.38;;;;;;;;;;5007603;28;20042;-80
2023/07/28 16:07:34;;;;;;;3.92;3.63;;;;;;;;;;5006962;28;20417;-83
2023/07/28 16:10:00;;;;;;;3.47;3.17;;;;;;;;;;5005694;28;20458;-84
2023/07/28 16:12:26;;;;;;;4.53;4.13;;;;;;;;;;5006541;28;20121;-82
2023/07/28 16:14:54;;;;;;;4.72;3.30;;;;;;;;;;5005142;28;20122;-83
2023/07/28 16:17:20;;;;;;;4.43;3.55;;;;;;;;;;5010493;28;20038;-82
2023/07/28 16:19:46;;;;;;;3.15;2.63;;;;;;;;;;4993347;28;20390;-82
2023/07/28 16:22:13;;;;;;;3.40;3.08;;;;;;;;;;4990395;28;20046;-83
2023/07/28 16:24:39;;;;;;;3.58;2.70;;;;;;;;;;5007723;28;20041;-84
2023/07/28 16:27:05;;;;;;;3.78;2.60;;;;;;;;;;4988881;28;20042;-85
2023/07/28 16:29:31;;;;;;;3.67;3.08;;;;;;;;;;5002631;28;20084;-85
2023/07/28 16:31:57;;;;;;;2.72;2.53;;;;;;;;;;5008408;28;20033;-85
2023/07/28 16:34:23;;;;;;;2.67;2.47;;;;;;;;;;5005141;28;20038;-83
2023/07/28 16:36:49;;;;;;;3.80;2.60;;;;;;;;;;5001048;28;20056;-82
2023/07/28 16:39:15;;;;;;;4.63;2.83;;;;;;;;;;4997506;28;20102;-80
2023/07/28 16:41:44;;;;;;;3.80;2.95;;;;;;;;;;4991807;28;20048;-82
2023/07/28 16:44:10;;;;;;;2.83;2.28;;;;;;;;;;5006133;28;20075;-81
2023/07/28 16:46:36;;;;;;;4.15;3.17;;;;;;;;;;5006523;28;20041;-80
2023/07/28 16:49:03;;;;;;;4.43;3.03;;;;;;;;;;4976067;28;20034;-81
2023/07/28 16:51:29;;;;;;;3.70;2.75;;;;;;;;;;4995106;28;20451;-81
2023/07/28 16:53:55;;;;;;;2.72;2.53;;;;;;;;;;4989454;28;20066;-81
2023/07/28 16:56:21;;;;;;;3.40;2.63;;;;;;;;;;4988870;28;20564;-81
2023/07/28 16:58:47;;;;;;;3.47;3.08;;;;;;;;;;5005470;28;20041;-81
2023/07/28 17:01:13;;;;;;;2.70;2.50;;;;;;;;;;5005660;28;20050;-81
2023/07/28 17:03:39;;;;;;;3.28;2.97;;;;;;;;;;4986179;28;20045;-81
2023/07/28 17:06:05;;;;;;;3.53;3.10;;;;;;;;;;5008187;28;20037;-82
2023/07/28 17:08:31;;;;;;;4.10;3.10;;;;;;;;;;4989570;28;20053;-81
2023/07/28 17:10:57;;;;;;;3.33;3.03;;;;;;;;;;5008202;28;20052;-81
2023/07/28 17:13:23;;;;;;;4.78;3.25;;;;;;;;;;5006082;28;20038;-81
2023/07/28 17:15:50;;;;;;;4.18;3.42;;;;;;;;;;5010256;28;20470;-81
2023/07/28 17:18:16;;;;;;;3.22;2.92;;;;;;;;;;5008443;28;20046;-81
2023/07/28 17:20:42;;;;;;;3.17;2.90;;;;;;;;;;4991411;28;20391;-80
2023/07/28 17:23:08;;;;;;;3.50;3.20;;;;;;;;;;5016089;28;20030;-81
2023/07/28 17:25:34;;;;;;;3.50;2.90;;;;;;;;;;5020496;28;20399;-81
2023/07/28 17:28:00;;;;;;;3.08;2.78;;;;;;;;;;5014030;28;20065;-80
2023/07/28 17:30:26;;;;;;;3.83;2.58;;;;;;;;;;4994227;28;20391;-81
2023/07/28 17:32:52;;;;;;;3.35;2.58;;;;;;;;;;4976227;28;20053;-80
2023/07/28 17:35:18;;;;;;;4.57;2.97;;;;;;;;;;4983730;28;20041;-81
2023/07/28 17:37:46;;;;;;;3.85;3.08;;;;;;;;;;4973952;28;20484;-82
2023/07/28 17:40:12;;;;;;;3.67;3.35;;;;;;;;;;5006490;28;20081;-82
2023/07/28 17:42:38;;;;;;;2.83;2.63;;;;;;;;;;5007696;28;20418;-81
2023/07/28 17:45:07;;;;;;;4.32;3.15;;;;;;;;;;4991082;28;20042;-81
2023/07/28 17:47:39;;;;;;;4.22;3.20;;;;;;;;;;4987635;28;20088;-81
2023/07/28 17:50:06;;;;;;;3.75;3.45;;;;;;;;;;5005847;28;20108;-80
2023/07/28 17:52:32;;;;;;;3.50;3.20;;;;;;;;;;4990544;28;20103;-81
2023/07/28 17:54:58;;;;;;;4.40;3.28;;;;;;;;;;5008478;28;20050;-81
2023/07/28 17:57:24;;;;;;;5.45;3.40;;;;;;;;;;5004483;28;20044;-81
2023/07/28 17:59:50;;;;;;;4.35;3.25;;;;;;;;;;4988960;28;20052;-80
2023/07/28 18:02:16;;;;;;;3.85;2.75;;;;;;;;;;5004788;28;20038;-80
2023/07/28 18:04:42;;;;;;;3.50;3.20;;;;;;;;;;4992802;28;20454;-80
2023/07/28 18:07:08;;;;;;;2.83;2.53;;;;;;;;;;4992953;28;20129;-80
2023/07/28 18:09:34;;;;;;;2.50;2.30;;;;;;;;;;5009494;28;20403;-80
2023/07/28 18:12:00;;;;;;;3.00;2.33;;;;;;;;;;4997436;28;20053;-80
2023/07/28 18:14:26;;;;;;;3.63;2.63;;;;;;;;;;4994400;28;20121;-80
2023/07/28 18:16:53;;;;;;;2.25;2.05;;;;;;;;;;5005569;28;20120;-80
2023/07/28 18:19:19;;;;;;;2.97;2.55;;;;;;;;;;5009600;28;20066;-81
2023/07/28 18:21:45;;;;;;;4.60;2.53;;;;;;;;;;5008377;28;20167;-80
2023/07/28 18:24:13;;;;;;;2.75;2.55;;;;;;;;;;5008954;28;20049;-80
2023/07/28 18:26:39;;;;;;;3.28;2.83;;;;;;;;;;4995201;28;20054;-80
2023/07/28 18:29:05;;;;;;;4.40;2.47;;;;;;;;;;5004011;28;20034;-80
2023/07/28 18:31:31;;;;;;;4.60;2.50;;;;;;;;;;5006544;28;20049;-80
2023/07/28 18:33:57;;;;;;;3.58;2.50;;;;;;;;;;4990545;28;20065;-80
2023/07/28 18:36:23;;;;;;;4.50;2.90;;;;;;;;;;4977514;28;20053;-80
2023/07/28 18:38:49;;;;;;;4.18;2.70;;;;;;;;;;4992944;28;20060;-80
2023/07/28 18:41:15;;;;;;;4.18;2.97;;;;;;;;;;5006834;28;20050;-82
2023/07/28 18:43:41;;;;;;;4.40;3.10;;;;;;;;;;4985111;28;20052;-82
2023/07/28 18:46:07;;;;;;;3.58;2.90;;;;;;;;;;5006993;28;20041;-82
2023/07/28 18:48:33;;;;;;;6.38;3.47;;;;;;;;;;4987658;28;20053;-82
2023/07/28 18:51:01;;;;;;;3.25;2.65;;;;;;;;;;5006972;28;20042;-82
2023/07/28 18:53:27;;;;;;;3.38;2.75;;;;;;;;;;5007447;28;20414;-82
2023/07/28 18:55:53;;;;;;;3.80;2.88;;;;;;;;;;4989460;28;20065;-83
2023/07/28 18:58:19;;;;;;;2.83;2.58;;;;;;;;;;5000067;28;20514;-83
2023/07/28 19:00:45;;;;;;;3.38;3.08;;;;;;;;;;5008745;28;20046;-83
2023/07/28 19:03:11;;;;;;;3.95;2.55;;;;;;;;;;5025696;28;20042;-83
2023/07/28 19:05:38;;;;;;;4.05;2.97;;;;;;;;;;5015388;28;20054;-83
2023/07/28 19:08:04;;;;;;;3.95;2.78;;;;;;;;;;5010021;28;20042;-83
2023/07/28 19:10:30;;;;;;;3.78;3.03;;;;;;;;;;5006904;28;20124;-83
2023/07/28 19:12:56;;;;;;;3.83;3.17;;;;;;;;;;5003476;28;20199;-83
2023/07/28 19:15:22;;;;;;;3.08;2.63;;;;;;;;;;5007652;28;20049;-83
2023/07/28 19:17:48;;;;;;;4.43;3.00;;;;;;;;;;4999382;28;20417;-84
2023/07/28 19:20:19;;;;;;;6.43;3.05;;;;;;;;;;5018445;28;20053;-82
2023/07/28 19:22:45;;;;;;;2.78;2.58;;;;;;;;;;5020715;28;20033;-82
2023/07/28 19:25:11;;;;;;;3.47;3.08;;;;;;;;;;4991589;28;20069;-82
2023/07/28 19:27:37;;;;;;;4.28;2.90;;;;;;;;;;5008250;28;20515;-82
2023/07/28 19:30:03;;;;;;;4.60;2.85;;;;;;;;;;5007037;28;20049;-82
2023/07/28 19:32:29;;;;;;;4.20;2.65;;;;;;;;;;5005686;28;20391;-81
2023/07/28 19:34:55;;;;;;;3.10;2.80;;;;;;;;;;5004866;28;20049;-82
2023/07/28 19:37:21;;;;;;;4.38;3.13;;;;;;;;;;5003467;28;20033;-82
2023/07/28 19:39:48;;;;;;;4.07;2.45;;;;;;;;;;5009595;28;20097;-82
2023/07/28 19:42:15;;;;;;;3.33;2.60;;;;;;;;;;4989327;28;20454;-82
2023/07/28 19:44:41;;;;;;;3.35;2.90;;;;;;;;;;4990963;28;20045;-82
2023/07/28 19:47:07;;;;;;;4.10;2.67;;;;;;;;;;4991961;28;20411;-82
2023/07/28 19:49:33;;;;;;;4.05;2.55;;;;;;;;;;5013571;28;20044;-82
2023/07/28 19:51:59;;;;;;;3.85;2.90;;;;;;;;;;5006763;28;20038;-82
2023/07/28 19:54:25;;;;;;;5.07;2.85;;;;;;;;;;5010166;28;20081;-82
2023/07/28 19:56:51;;;;;;;4.40;2.92;;;;;;;;;;4988174;28;20118;-82
2023/07/28 19:59:17;;;;;;;3.25;2.70;;;;;;;;;;5009025;28;20053;-82
2023/07/28 20:01:43;;;;;;;2.70;2.40;;;;;;;;;;5005938;28;20077;-82
2023/07/28 20:04:09;;;;;;;4.82;2.60;;;;;;;;;;5011154;28;20482;-82
2023/07/28 20:06:35;;;;;;;4.40;2.75;;;;;;;;;;4997210;28;20037;-82
2023/07/28 20:09:01;;;;;;;3.40;2.28;;;;;;;;;;5006719;28;20050;-82
2023/07/28 20:11:27;;;;;;;3.50;2.67;;;;;;;;;;5007664;28;20049;-82
2023/07/28 20:13:53;;;;;;;4.35;2.60;;;;;;;;;;5007803;28;20038;-82
2023/07/28 20:16:19;;;;;;;2.40;2.20;;;;;;;;;;4995557;28;20046;-82
2023/07/28 20:18:47;;;;;;;3.00;2.30;;;;;;;;;;5011664;28;20091;-82
2023/07/28 20:21:13;;;;;;;2.78;2.47;;;;;;;;;;4994894;28;20073;-82
2023/07/28 20:23:39;;;;;;;2.80;2.13;;;;;;;;;;4990191;28;20072;-82
2023/07/28 20:26:06;;;;;;;3.78;2.20;;;;;;;;;;4991897;28;20468;-82
2023/07/28 20:28:32;;;;;;;3.67;2.10;;;;;;;;;;4988289;28;20417;-83
2023/07/28 20:30:58;;;;;;;3.13;2.42;;;;;;;;;;4977201;28;20053;-83
2023/07/28 20:33:24;;;;;;;2.83;1.98;;;;;;;;;;5012758;28;20501;-82
2023/07/28 20:35:50;;;;;;;3.58;2.30;;;;;;;;;;5030988;28;20116;-83
2023/07/28 20:38:16;;;;;;;2.60;2.20;;;;;;;;;;4986526;28;20042;-82
2023/07/28 20:40:42;;;;;;;2.65;2.03;;;;;;;;;;5002602;28;20053;-87
2023/07/28 20:43:08;;;;;;;2.20;2.00;;;;;;;;;;4988213;28;20061;-84
2023/07/28 20:45:34;;;;;;;3.75;2.50;;;;;;;;;;4975637;28;20133;-84
2023/07/28 20:48:00;;;;;;;2.45;2.20;;;;;;;;;;4999989;28;20050;-87
2023/07/28 20:50:26;;;;;;;2.85;2.08;;;;;;;;;;4981507;28;20044;-87
2023/07/28 20:52:52;;;;;;;2.65;2.17;;;;;;;;;;4991574;28;20042;-88
2023/07/28 20:55:18;;;;;;;3.03;2.40;;;;;;;;;;4999744;28;20448;-87
2023/07/28 20:57:44;;;;;;;2.63;2.42;;;;;;;;;;5002876;28;20075;-87
2023/07/28 21:00:11;;;;;;;3.80;2.55;;;;;;;;;;4990474;28;20089;-87
2023/07/28 21:02:37;;;;;;;2.55;2.17;;;;;;;;;;5016032;28;20610;-87
2023/07/28 21:05:03;;;;;;;3.00;2.50;;;;;;;;;;4983866;28;20041;-84
2023/07/28 21:07:29;;;;;;;3.47;2.38;;;;;;;;;;5000787;28;20088;-84
2023/07/28 21:09:55;;;;;;;3.40;2.10;;;;;;;;;;4990459;28;20034;-83
2023/07/28 21:12:21;;;;;;;3.05;2.40;;;;;;;;;;4982211;28;20046;-86
2023/07/28 21:14:48;;;;;;;3.10;2.55;;;;;;;;;;4998217;28;20054;-87
2023/07/28 21:17:14;;;;;;;3.60;2.42;;;;;;;;;;5021821;28;20088;-87
2023/07/28 21:19:41;;;;;;;2.33;2.13;;;;;;;;;;4995058;28;20038;-86
2023/07/28 21:22:07;;;;;;;4.40;2.88;;;;;;;;;;5001105;28;20385;-86
2023/07/28 21:24:33;;;;;;;2.63;2.38;;;;;;;;;;5009719;28;20103;-86
2023/07/28 21:26:59;;;;;;;2.92;2.42;;;;;;;;;;5009770;28;20072;-86
2023/07/28 21:29:26;;;;;;;4.70;2.58;;;;;;;;;;5010212;28;20411;-86
2023/07/28 21:31:52;;;;;;;4.63;2.55;;;;;;;;;;4993595;28;20479;-86
2023/07/28 21:34:18;;;;;;;4.53;2.58;;;;;;;;;;5010583;28;20136;-85
2023/07/28 21:36:47;;;;;;;4.30;2.58;;;;;;;;;;4996918;28;20050;-86
2023/07/28 21:39:14;;;;;;;4.03;2.80;;;;;;;;;;5000998;28;20403;-86
2023/07/28 21:41:40;;;;;;;2.70;2.40;;;;;;;;;;5002993;28;20038;-86
2023/07/28 21:44:06;;;;;;;3.92;2.85;;;;;;;;;;5009486;28;20398;-86
2023/07/28 21:46:33;;;;;;;4.15;2.92;;;;;;;;;;5008467;28;20144;-86
2023/07/28 21:48:59;;;;;;;3.75;3.25;;;;;;;;;;4991610;28;20117;-86
2023/07/28 21:51:25;;;;;;;4.55;3.05;;;;;;;;;;5009528;28;20046;-86
2023/07/28 21:53:52;;;;;;;3.97;2.95;;;;;;;;;;5007351;28;20045;-86
2023/07/28 21:56:18;;;;;;;3.95;2.92;;;;;;;;;;4994611;28;20072;-86
2023/07/28 21:58:44;;;;;;;3.92;3.03;;;;;;;;;;4975277;28;20101;-86
2023/07/28 22:01:10;;;;;;;5.03;2.78;;;;;;;;;;5010009;28;20099;-86
2023/07/28 22:03:38;;;;;;;2.95;2.63;;;;;;;;;;5009552;28;20038;-86
2023/07/28 22:06:04;;;;;;;5.43;2.95;;;;;;;;;;5007506;28;20073;-86
2023/07/28 22:08:30;;;;;;;5.35;2.85;;;;;;;;;;5007204;28;20069;-86
2023/07/28 22:10:56;;;;;;;4.43;2.78;;;;;;;;;;5003931;28;20077;-86
2023/07/28 22:13:22;;;;;;;3.65;2.53;;;;;;;;;;5007853;28;20125;-86
2023/07/28 22:15:48;;;;;;;4.00;2.70;;;;;;;;;;5007248;28;20124;-86
2023/07/28 22:18:14;;;;;;;4.18;3.35;;;;;;;;;;4990313;28;20042;-86
2023/07/28 22:20:42;;;;;;;3.47;2.75;;;;;;;;;;4996935;28;20041;-86
2023/07/28 22:23:08;;;;;;;3.97;3.05;;;;;;;;;;5009095;28;20402;-86
2023/07/28 22:25:41;;;;;;;5.35;3.20;;;;;;;;;;4994858;28;20538;-86
2023/07/28 22:28:07;;;;;;;3.63;2.92;;;;;;;;;;5008234;28;20558;-86
2023/07/28 22:30:33;;;;;;;4.13;3.47;;;;;;;;;;5007891;28;20121;-86
2023/07/28 22:32:59;;;;;;;4.88;3.53;;;;;;;;;;5008673;28;20124;-86
2023/07/28 22:35:25;;;;;;;4.80;3.58;;;;;;;;;;5009055;28;20080;-86
2023/07/28 22:37:51;;;;;;;5.82;3.83;;;;;;;;;;4988117;28;20438;-86
2023/07/28 22:40:17;;;;;;;5.50;3.63;;;;;;;;;;4991611;28;20058;-86
2023/07/28 22:42:43;;;;;;;4.68;3.30;;;;;;;;;;4988011;28;20501;-86
2023/07/28 22:45:10;;;;;;;6.85;3.50;;;;;;;;;;4985257;28;20081;-86
2023/07/28 22:47:36;;;;;;;5.90;3.28;;;;;;;;;;4989062;28;20034;-86
2023/07/28 22:50:02;;;;;;;5.18;3.45;;;;;;;;;;4971273;28;20126;-85
2023/07/28 22:52:28;;;;;;;5.10;3.47;;;;;;;;;;4987898;28;20034;-86
2023/07/28 22:54:54;;;;;;;5.57;3.38;;;;;;;;;;4988603;28;20089;-85
2023/07/28 22:57:20;;;;;;;5.07;3.38;;;;;;;;;;4986747;28;20041;-86
2023/07/28 22:59:46;;;;;;;3.70;2.78;;;;;;;;;;4971649;28;20041;-86
2023/07/28 23:02:12;;;;;;;4.38;3.15;;;;;;;;;;4970373;28;20038;-86
2023/07/28 23:04:38;;;;;;;4.70;3.50;;;;;;;;;;4989345;28;20046;-86
2023/07/28 23:07:04;;;;;;;5.82;3.38;;;;;;;;;;4988172;28;20034;-86
2023/07/28 23:09:30;;;;;;;4.03;2.67;;;;;;;;;;4970115;28;20476;-87
2023/07/28 23:11:56;;;;;;;3.42;2.70;;;;;;;;;;4980744;28;20096;-86
2023/07/28 23:14:22;;;;;;;3.00;2.58;;;;;;;;;;4986642;28;20042;-86
2023/07/28 23:16:48;;;;;;;4.93;3.08;;;;;;;;;;4989063;28;20038;-87
2023/07/28 23:19:14;;;;;;;4.03;3.13;;;;;;;;;;4967869;28;20063;-86
2023/07/28 23:21:40;;;;;;;5.07;3.42;;;;;;;;;;4988383;28;20050;-87
2023/07/28 23:24:06;;;;;;;7.03;4.07;;;;;;;;;;4989250;28;20045;-86
2023/07/28 23:26:33;;;;;;;5.00;3.53;;;;;;;;;;4970378;28;20042;-86
2023/07/28 23:28:58;;;;;;;4.78;3.75;;;;;;;;;;4989635;28;20046;-87
2023/07/28 23:31:27;;;;;;;4.95;3.95;;;;;;;;;;4971185;28;20129;-87
2023/07/28 23:33:54;;;;;;;5.57;4.32;;;;;;;;;;4993575;28;20078;-86
2023/07/28 23:36:20;;;;;;;6.80;4.13;;;;;;;;;;4988988;28;20092;-86
2023/07/28 23:38:46;;;;;;;4.80;3.78;;;;;;;;;;4973243;28;20129;-86
2023/07/28 23:41:12;;;;;;;5.75;3.67;;;;;;;;;;4993768;28;20042;-87
2023/07/28 23:43:38;;;;;;;6.38;4.82;;;;;;;;;;5011151;28;20120;-86
2023/07/28 23:46:04;;;;;;;5.45;4.10;;;;;;;;;;5010003;28;20049;-86
2023/07/28 23:48:31;;;;;;;6.72;4.40;;;;;;;;;;4999934;28;20495;-86
2023/07/28 23:50:57;;;;;;;5.28;4.28;;;;;;;;;;5007703;28;20121;-86
2023/07/28 23:53:23;;;;;;;5.97;4.05;;;;;;;;;;5010349;28;20089;-87
2023/07/28 23:55:50;;;;;;;6.57;4.10;;;;;;;;;;4991328;28;20053;-87
2023/07/28 23:58:16;;;;;;;6.05;4.65;;;;;;;;;;5007649;28;20108;-87
